Time;durP1;ratioP1;P1;durP2;ratioP2;P2;SDS_P1;SDS_P2;PMS_P1;PMS_P2;Temp;Humidity;BMP_temperature;BMP_pressure;BME280_temperature;BME280_humidity;BME280_pressure;Samples;Min_cycle;Max_cycle;Signal;HPM_P1;HPM_P2
2023/03/07 00:00:42;;;;;;;47.27;15.33;;;0.70;99.90;;;;;;4196417;28;20466;-74
2023/03/07 00:02:44;;;;;;;45.47;16.77;;;0.70;99.90;;;;;;4194742;28;20998;-75
2023/03/07 00:04:46;;;;;;;43.23;14.60;;;0.80;99.90;;;;;;4194330;28;20499;-75
2023/03/07 00:06:48;;;;;;;43.30;14.50;;;0.80;99.90;;;;;;4194650;28;20525;-75
2023/03/07 00:08:50;;;;;;;49.73;16.00;;;0.80;99.90;;;;;;4194387;28;20457;-75
2023/03/07 00:10:52;;;;;;;41.17;15.40;;;0.80;99.90;;;;;;4209841;28;20537;-72
2023/03/07 00:12:53;;;;;;;42.67;14.50;;;0.80;99.90;;;;;;4194162;28;20477;-76
2023/03/07 00:14:56;;;;;;;43.63;15.50;;;0.80;99.90;;;;;;4192996;28;20465;-76
2023/03/07 00:16:59;;;;;;;41.27;15.40;;;0.80;99.90;;;;;;4193840;28;20488;-75
2023/03/07 00:19:01;;;;;;;35.23;14.00;;;1.10;99.90;;;;;;4196830;28;20455;-74
2023/03/07 00:21:05;;;;;;;40.27;14.23;;;0.80;99.90;;;;;;4192949;28;21004;-75
2023/03/07 00:23:07;;;;;;;43.73;14.77;;;0.80;99.90;;;;;;4185825;28;21233;-75
2023/03/07 00:25:10;;;;;;;39.27;14.93;;;0.90;99.90;;;;;;4196990;28;20466;-74
2023/03/07 00:27:12;;;;;;;38.63;14.47;;;0.90;99.90;;;;;;4195442;28;20583;-73
2023/03/07 00:29:14;;;;;;;40.20;14.50;;;0.90;99.90;;;;;;4196225;28;20493;-73
2023/03/07 00:31:17;;;;;;;39.87;14.30;;;0.90;99.90;;;;;;4197613;28;20582;-75
2023/03/07 00:33:21;;;;;;;42.23;14.57;;;0.90;99.90;;;;;;4194642;28;21039;-74
2023/03/07 00:35:23;;;;;;;39.67;14.10;;;0.90;99.90;;;;;;4192234;28;20468;-74
2023/03/07 00:37:24;;;;;;;38.40;13.40;;;0.90;99.90;;;;;;4208666;28;21150;-74
2023/03/07 00:39:26;;;;;;;35.67;13.27;;;0.90;99.90;;;;;;4208670;28;21007;-73
2023/03/07 00:41:31;;;;;;;39.53;14.40;;;0.90;99.90;;;;;;4193603;28;21362;-73
2023/03/07 00:43:34;;;;;;;37.50;13.60;;;0.90;99.90;;;;;;4193314;28;20450;-75
2023/03/07 00:45:35;;;;;;;43.50;14.40;;;0.90;99.90;;;;;;4191574;28;20549;-74
2023/03/07 00:47:37;;;;;;;35.23;14.17;;;0.90;99.90;;;;;;4190003;28;20501;-75
2023/03/07 00:49:40;;;;;;;37.63;13.47;;;0.90;99.90;;;;;;4192789;28;20886;-74
2023/03/07 00:51:42;;;;;;;37.67;14.77;;;0.90;99.90;;;;;;4192843;28;20553;-75
2023/03/07 00:53:45;;;;;;;38.60;14.30;;;0.90;99.90;;;;;;4192558;28;20490;-75
2023/03/07 00:55:55;;;;;;;32.83;13.40;;;0.90;99.90;;;;;;4191998;28;20459;-75
2023/03/07 00:57:57;;;;;;;33.80;13.27;;;0.90;99.90;;;;;;4192467;28;21123;-74
2023/03/07 00:59:58;;;;;;;36.23;14.10;;;1.00;99.90;;;;;;4193283;28;20925;-75
2023/03/07 01:02:00;;;;;;;32.77;12.83;;;0.60;99.90;;;;;;4210182;28;20489;-75
2023/03/07 01:04:02;;;;;;;38.17;14.73;;;0.90;99.90;;;;;;4197138;28;21506;-74
2023/03/07 01:06:09;;;;;;;38.13;14.37;;;0.90;99.90;;;;;;4195267;28;21060;-75
2023/03/07 01:08:11;;;;;;;34.50;13.50;;;0.90;99.90;;;;;;4192966;28;21107;-74
2023/03/07 01:10:13;;;;;;;40.90;14.57;;;0.90;99.90;;;;;;4195353;28;20535;-73
2023/03/07 01:12:15;;;;;;;36.93;14.13;;;0.90;99.90;;;;;;4190747;28;20967;-74
2023/03/07 01:14:17;;;;;;;37.70;14.60;;;0.90;99.90;;;;;;4198087;28;20501;-75
2023/03/07 01:16:21;;;;;;;36.77;13.73;;;1.00;99.90;;;;;;4197177;28;20566;-75
2023/03/07 01:18:23;;;;;;;32.57;13.13;;;0.90;99.90;;;;;;4198688;28;20467;-75
2023/03/07 01:20:25;;;;;;;35.50;13.30;;;0.90;99.90;;;;;;4196504;28;20482;-74
2023/03/07 01:22:28;;;;;;;31.93;13.30;;;0.90;99.90;;;;;;4195766;28;20459;-75
2023/03/07 01:24:30;;;;;;;33.50;13.07;;;0.90;99.90;;;;;;4186840;28;20894;-74
2023/03/07 01:26:32;;;;;;;35.47;13.50;;;1.00;99.90;;;;;;4211612;28;20573;-72
2023/03/07 01:28:34;;;;;;;36.00;14.30;;;1.00;99.90;;;;;;4197382;28;20454;-75
2023/03/07 01:30:36;;;;;;;33.30;13.70;;;1.00;99.90;;;;;;4212411;28;21070;-72
2023/03/07 01:32:38;;;;;;;34.60;13.37;;;1.00;99.90;;;;;;4194464;28;20545;-76
2023/03/07 01:34:40;;;;;;;35.43;14.17;;;1.00;99.90;;;;;;4196236;28;20853;-76
2023/03/07 01:36:42;;;;;;;34.20;13.47;;;1.00;99.90;;;;;;4197208;28;20462;-75
2023/03/07 01:38:45;;;;;;;34.77;14.10;;;1.00;99.90;;;;;;4196880;28;21035;-74
2023/03/07 01:40:47;;;;;;;35.87;14.23;;;1.00;99.90;;;;;;4196629;28;20466;-75
2023/03/07 01:42:52;;;;;;;29.47;12.50;;;1.10;99.90;;;;;;4197142;28;20753;-74
2023/03/07 01:45:04;;;;;;;34.73;13.70;;;1.00;99.90;;;;;;4197911;28;20475;-75
2023/03/07 01:47:06;;;;;;;35.20;13.50;;;1.00;99.90;;;;;;4196754;28;20494;-75
2023/03/07 01:49:12;;;;;;;30.53;13.37;;;1.10;99.90;;;;;;4196875;28;20467;-74
2023/03/07 01:51:15;;;;;;;36.50;14.33;;;1.10;99.90;;;;;;4200349;28;20509;-75
2023/03/07 01:53:17;;;;;;;33.10;13.03;;;1.10;99.90;;;;;;4198076;28;20534;-74
2023/03/07 01:55:23;;;;;;;32.87;13.47;;;1.10;99.90;;;;;;4198371;28;20505;-76
2023/03/07 01:57:29;;;;;;;36.73;14.20;;;1.20;99.90;;;;;;4197070;28;20478;-75
2023/03/07 01:59:36;;;;;;;35.07;14.53;;;1.10;99.90;;;;;;4198483;28;20905;-75
2023/03/07 02:01:38;;;;;;;34.37;13.93;;;1.20;99.90;;;;;;4196925;28;20481;-74
2023/03/07 02:03:46;;;;;;;37.97;13.97;;;1.20;99.90;;;;;;4195947;28;20467;-76
2023/03/07 02:05:51;;;;;;;33.23;14.17;;;1.20;99.90;;;;;;4194886;28;20516;-75
2023/03/07 02:07:56;;;;;;;33.43;13.70;;;1.20;99.90;;;;;;4193943;28;20513;-76
2023/03/07 02:09:58;;;;;;;31.97;13.50;;;1.20;99.90;;;;;;4196503;28;20459;-75
2023/03/07 02:12:02;;;;;;;38.73;14.53;;;1.20;99.90;;;;;;4195451;28;20467;-76
2023/03/07 02:14:04;;;;;;;30.07;14.27;;;1.30;99.90;;;;;;4196330;28;20482;-76
2023/03/07 02:16:07;;;;;;;32.27;13.77;;;1.30;99.90;;;;;;4194095;28;20470;-76
2023/03/07 02:18:11;;;;;;;32.30;14.20;;;1.20;99.90;;;;;;4195934;28;20497;-74
2023/03/07 02:20:26;;;;;;;30.10;13.47;;;1.30;99.90;;;;;;4194540;28;20498;-76
2023/03/07 02:22:29;;;;;;;35.93;13.67;;;1.30;99.90;;;;;;4196534;28;21288;-74
2023/03/07 02:24:40;;;;;;;34.93;14.33;;;1.30;99.90;;;;;;4195542;28;20558;-75
2023/03/07 02:26:44;;;;;;;37.20;14.13;;;1.30;99.90;;;;;;4199359;28;20490;-72
2023/03/07 02:28:48;;;;;;;35.10;14.50;;;1.30;99.90;;;;;;4195153;28;20541;-75
2023/03/07 02:30:55;;;;;;;33.27;15.07;;;1.30;99.90;;;;;;4196720;28;20454;-73
2023/03/07 02:32:57;;;;;;;35.60;14.87;;;1.40;99.90;;;;;;4195820;28;20549;-74
2023/03/07 02:34:58;;;;;;;32.20;14.20;;;1.40;99.90;;;;;;4195121;28;20483;-74
2023/03/07 02:37:04;;;;;;;30.90;14.67;;;1.40;99.90;;;;;;4198080;28;20549;-75
2023/03/07 02:39:06;;;;;;;33.20;15.07;;;1.40;99.90;;;;;;4196575;28;20470;-74
2023/03/07 02:41:11;;;;;;;34.60;14.10;;;1.40;99.90;;;;;;4195864;28;20463;-75
2023/03/07 02:43:16;;;;;;;33.97;14.73;;;1.40;99.90;;;;;;4195510;28;20467;-75
2023/03/07 02:45:19;;;;;;;34.83;14.70;;;1.40;99.90;;;;;;4194574;28;20486;-73
2023/03/07 02:47:21;;;;;;;37.23;15.10;;;1.40;99.90;;;;;;4193173;28;20581;-74
2023/03/07 02:49:23;;;;;;;35.47;15.30;;;1.40;99.90;;;;;;4197447;28;20584;-75
2023/03/07 02:51:25;;;;;;;35.57;14.70;;;1.40;99.90;;;;;;4195221;28;20906;-74
2023/03/07 02:53:27;;;;;;;34.57;14.77;;;1.40;99.90;;;;;;4196048;28;20542;-75
2023/03/07 02:55:29;;;;;;;35.10;14.37;;;1.40;99.90;;;;;;4196600;28;20467;-75
2023/03/07 02:57:31;;;;;;;31.87;13.87;;;1.40;99.90;;;;;;4196108;28;20566;-75
2023/03/07 02:59:35;;;;;;;32.03;13.97;;;1.50;99.90;;;;;;4194009;28;20469;-75
2023/03/07 03:01:38;;;;;;;34.83;14.43;;;1.40;99.90;;;;;;4194880;28;20475;-74
2023/03/07 03:03:40;;;;;;;36.43;15.03;;;1.50;99.90;;;;;;4196351;28;20844;-74
2023/03/07 03:05:42;;;;;;;33.17;13.47;;;1.50;99.90;;;;;;4197359;28;20830;-74
2023/03/07 03:07:44;;;;;;;32.53;13.97;;;1.50;99.90;;;;;;4193243;28;20561;-74
2023/03/07 03:09:46;;;;;;;35.60;14.67;;;1.50;99.90;;;;;;4195499;28;20990;-75
2023/03/07 03:11:48;;;;;;;32.20;14.13;;;1.50;99.90;;;;;;4197765;28;20468;-75
2023/03/07 03:13:50;;;;;;;32.03;13.50;;;1.50;99.90;;;;;;4194703;28;20471;-74
2023/03/07 03:15:56;;;;;;;35.43;13.77;;;1.50;99.90;;;;;;4194925;28;20550;-75
2023/03/07 03:17:58;;;;;;;33.67;13.73;;;1.50;99.90;;;;;;4194879;28;20483;-75
2023/03/07 03:20:00;;;;;;;33.80;13.70;;;1.60;99.90;;;;;;4194339;28;20458;-75
2023/03/07 03:22:03;;;;;;;27.93;13.57;;;1.60;99.90;;;;;;4192924;28;20573;-75
2023/03/07 03:24:06;;;;;;;36.03;15.00;;;1.50;99.90;;;;;;4193819;28;20467;-73
2023/03/07 03:26:10;;;;;;;34.80;13.93;;;1.50;99.90;;;;;;4198107;28;20454;-76
2023/03/07 03:28:13;;;;;;;28.60;13.13;;;1.50;99.90;;;;;;4210526;28;20496;-74
2023/03/07 03:30:15;;;;;;;33.60;12.87;;;1.60;99.90;;;;;;4192973;28;20454;-76
2023/03/07 03:32:18;;;;;;;29.13;12.27;;;1.60;99.90;;;;;;4197195;28;20485;-75
2023/03/07 03:34:21;;;;;;;26.77;12.47;;;1.60;99.90;;;;;;4193364;28;20866;-74
2023/03/07 03:36:24;;;;;;;28.73;13.07;;;1.60;99.90;;;;;;4193992;28;20486;-75
2023/03/07 03:38:26;;;;;;;30.17;13.40;;;1.60;99.90;;;;;;4195904;28;20526;-72
2023/03/07 03:40:29;;;;;;;30.97;14.00;;;1.60;99.90;;;;;;4195096;28;20463;-75
2023/03/07 03:42:30;;;;;;;30.50;13.00;;;1.70;99.90;;;;;;4194274;28;20486;-74
2023/03/07 03:44:32;;;;;;;29.87;13.10;;;1.60;99.90;;;;;;4198025;28;20980;-74
2023/03/07 03:46:34;;;;;;;28.70;12.47;;;1.70;99.90;;;;;;4196217;28;20508;-73
2023/03/07 03:48:38;;;;;;;28.00;12.07;;;1.60;99.90;;;;;;4192127;28;21030;-73
2023/03/07 03:50:40;;;;;;;28.77;12.47;;;1.70;99.90;;;;;;4195147;28;20486;-75
2023/03/07 03:52:43;;;;;;;30.17;12.30;;;1.70;99.90;;;;;;4210211;28;20458;-75
2023/03/07 03:54:45;;;;;;;31.83;13.03;;;1.70;99.90;;;;;;4210964;28;20983;-76
2023/03/07 03:56:47;;;;;;;28.87;12.40;;;1.70;99.90;;;;;;4194019;28;20553;-76
2023/03/07 03:58:51;;;;;;;28.97;12.93;;;1.70;99.90;;;;;;4194558;28;20486;-75
2023/03/07 04:00:53;;;;;;;27.17;12.40;;;1.70;99.90;;;;;;4193759;28;20901;-75
2023/03/07 04:02:55;;;;;;;29.97;12.97;;;1.70;99.90;;;;;;4193908;28;20964;-74
2023/03/07 04:04:58;;;;;;;24.87;11.53;;;1.70;99.90;;;;;;4196729;28;20545;-72
2023/03/07 04:07:00;;;;;;;29.20;12.70;;;1.70;99.90;;;;;;4195164;28;20483;-73
2023/03/07 04:09:03;;;;;;;26.80;12.20;;;1.70;99.90;;;;;;4194077;28;20988;-75
2023/03/07 04:11:06;;;;;;;25.67;11.77;;;1.70;99.90;;;;;;4196119;28;20462;-75
2023/03/07 04:13:08;;;;;;;26.53;11.60;;;1.70;99.90;;;;;;4209755;28;20832;-75
2023/03/07 04:15:11;;;;;;;23.73;11.57;;;1.70;99.90;;;;;;4194053;28;20463;-75
2023/03/07 04:17:13;;;;;;;26.03;11.07;;;1.70;99.90;;;;;;4194078;28;20505;-76
2023/03/07 04:19:15;;;;;;;24.77;11.00;;;1.70;99.90;;;;;;4193738;28;20579;-75
2023/03/07 04:21:19;;;;;;;23.67;10.73;;;1.70;99.90;;;;;;4194077;28;20451;-75
2023/03/07 04:23:21;;;;;;;24.97;11.23;;;1.70;99.90;;;;;;4194490;28;20805;-76
2023/03/07 04:25:23;;;;;;;24.93;10.40;;;1.70;99.90;;;;;;4193924;28;20896;-76
2023/03/07 04:27:25;;;;;;;24.37;11.23;;;1.70;99.90;;;;;;4193731;28;20530;-74
2023/03/07 04:29:29;;;;;;;27.23;11.20;;;1.70;99.90;;;;;;4195111;28;20499;-73
2023/03/07 04:31:31;;;;;;;26.00;10.77;;;1.70;99.90;;;;;;4194734;28;20454;-74
2023/03/07 04:33:33;;;;;;;23.87;10.33;;;1.70;99.90;;;;;;4183533;28;20474;-75
2023/03/07 04:35:35;;;;;;;22.87;9.97;;;1.70;99.90;;;;;;4193694;28;20497;-73
2023/03/07 04:37:38;;;;;;;25.83;10.50;;;1.80;99.90;;;;;;4192935;28;20551;-74
2023/03/07 04:39:40;;;;;;;23.90;10.13;;;1.80;99.90;;;;;;4193609;28;20459;-74
2023/03/07 04:41:42;;;;;;;25.37;11.60;;;1.80;99.90;;;;;;4193556;28;20482;-74
2023/03/07 04:43:44;;;;;;;29.33;12.37;;;1.80;99.90;;;;;;4192571;28;20478;-74
2023/03/07 04:45:46;;;;;;;27.30;11.07;;;1.90;99.90;;;;;;4195453;28;20520;-74
2023/03/07 04:47:48;;;;;;;22.77;9.63;;;1.90;99.90;;;;;;4196368;28;20589;-74
2023/03/07 04:49:49;;;;;;;24.17;10.30;;;1.90;99.90;;;;;;4194657;28;20604;-75
2023/03/07 04:51:51;;;;;;;25.83;10.50;;;1.90;99.90;;;;;;4195930;28;21077;-73
2023/03/07 04:53:55;;;;;;;23.50;10.13;;;1.90;99.90;;;;;;4194944;28;20493;-75
2023/03/07 04:55:58;;;;;;;26.53;11.47;;;1.90;99.90;;;;;;4196925;28;21027;-76
2023/03/07 04:58:00;;;;;;;27.50;11.10;;;1.90;99.90;;;;;;4212990;28;20470;-75
2023/03/07 05:00:04;;;;;;;24.10;9.90;;;1.90;99.90;;;;;;4195111;28;20488;-75
2023/03/07 05:02:06;;;;;;;23.73;11.23;;;1.90;99.90;;;;;;4194144;28;20526;-71
2023/03/07 05:04:08;;;;;;;24.63;9.80;;;1.90;99.90;;;;;;4202328;28;20449;-74
2023/03/07 05:06:14;;;;;;;22.87;10.37;;;1.90;99.90;;;;;;4211041;28;20494;-76
2023/03/07 05:08:16;;;;;;;24.40;10.83;;;1.90;99.90;;;;;;4194178;28;20497;-75
2023/03/07 05:10:19;;;;;;;23.23;9.90;;;1.90;99.90;;;;;;4194345;28;20495;-73
2023/03/07 05:12:21;;;;;;;23.03;10.17;;;1.90;99.90;;;;;;4196266;28;20948;-75
2023/03/07 05:14:23;;;;;;;22.60;9.70;;;1.90;99.90;;;;;;4197817;28;20880;-75
2023/03/07 05:16:25;;;;;;;21.70;9.53;;;1.90;99.90;;;;;;4193733;28;20495;-76
2023/03/07 05:18:28;;;;;;;21.70;9.80;;;1.90;99.90;;;;;;4195652;28;20471;-72
2023/03/07 05:20:29;;;;;;;24.63;9.93;;;1.90;99.90;;;;;;4197070;28;20442;-73
2023/03/07 05:22:31;;;;;;;24.93;10.30;;;1.90;99.90;;;;;;4196465;28;20458;-76
2023/03/07 05:24:33;;;;;;;22.07;9.57;;;1.90;99.90;;;;;;4199983;28;20475;-77
2023/03/07 05:26:37;;;;;;;21.80;9.63;;;1.90;99.90;;;;;;4205720;28;20937;-75
2023/03/07 05:28:39;;;;;;;20.73;9.30;;;2.00;99.90;;;;;;4198573;28;20495;-74
2023/03/07 05:30:41;;;;;;;19.77;8.97;;;2.00;99.90;;;;;;4190860;28;20473;-75
2023/03/07 05:32:43;;;;;;;20.63;9.03;;;2.00;99.90;;;;;;4198251;28;20491;-74
2023/03/07 05:34:45;;;;;;;16.33;8.07;;;2.00;99.90;;;;;;4194422;28;20454;-73
2023/03/07 05:36:48;;;;;;;18.73;8.17;;;2.10;99.90;;;;;;4195571;28;20490;-75
2023/03/07 05:38:52;;;;;;;23.07;8.60;;;2.00;99.90;;;;;;4195637;28;20451;-75
2023/03/07 05:40:54;;;;;;;19.70;8.43;;;2.10;99.90;;;;;;4211279;28;20490;-74
2023/03/07 05:42:57;;;;;;;17.07;7.93;;;2.10;99.90;;;;;;4209831;28;21309;-75
2023/03/07 05:44:59;;;;;;;17.07;7.60;;;2.10;99.90;;;;;;4191443;28;21041;-73
2023/03/07 05:47:01;;;;;;;16.53;7.70;;;2.10;99.90;;;;;;4194430;28;20523;-71
2023/03/07 05:49:03;;;;;;;14.83;6.97;;;2.10;99.90;;;;;;4195692;28;21262;-73
2023/03/07 05:51:05;;;;;;;18.33;8.50;;;2.10;99.90;;;;;;4193848;28;20913;-74
2023/03/07 05:53:09;;;;;;;13.80;6.80;;;2.10;99.90;;;;;;4212376;28;20447;-73
2023/03/07 05:55:11;;;;;;;14.47;6.67;;;2.20;99.90;;;;;;4194430;28;20459;-75
2023/03/07 05:57:13;;;;;;;14.63;6.70;;;2.20;99.90;;;;;;4193990;28;20511;-74
2023/03/07 05:59:16;;;;;;;15.87;6.73;;;2.20;99.90;;;;;;4195827;28;20547;-74
2023/03/07 06:01:18;;;;;;;16.53;7.53;;;2.30;99.90;;;;;;4192364;28;20456;-75
2023/03/07 06:03:20;;;;;;;15.70;6.73;;;2.30;99.90;;;;;;4193135;28;20459;-75
2023/03/07 06:05:22;;;;;;;15.03;6.67;;;2.30;99.90;;;;;;4208109;28;21024;-72
2023/03/07 06:07:25;;;;;;;13.47;6.63;;;2.30;99.90;;;;;;4190519;28;20515;-76
2023/03/07 06:09:27;;;;;;;13.17;5.87;;;2.30;99.90;;;;;;4192692;28;20491;-74
2023/03/07 06:11:29;;;;;;;13.07;6.23;;;2.30;99.90;;;;;;4191393;28;20458;-75
2023/03/07 06:13:31;;;;;;;16.93;6.60;;;2.40;99.90;;;;;;4192615;28;20444;-75
2023/03/07 06:15:35;;;;;;;13.40;6.33;;;2.40;99.90;;;;;;4192772;28;20506;-74
2023/03/07 06:17:36;;;;;;;12.93;5.80;;;2.50;99.90;;;;;;4207524;28;20526;-72
2023/03/07 06:19:38;;;;;;;14.63;6.83;;;2.50;99.90;;;;;;4194879;28;20496;-74
2023/03/07 06:21:41;;;;;;;15.53;6.70;;;2.50;99.90;;;;;;4193339;28;20448;-73
2023/03/07 06:23:44;;;;;;;12.60;5.67;;;2.70;99.90;;;;;;4194840;28;20456;-76
2023/03/07 06:25:46;;;;;;;13.60;5.93;;;2.60;99.90;;;;;;4196358;28;20448;-77
2023/03/07 06:27:48;;;;;;;16.07;6.47;;;2.60;99.90;;;;;;4188928;28;20484;-79
2023/03/07 06:29:50;;;;;;;12.43;5.80;;;2.60;99.90;;;;;;4181853;28;20460;-75
2023/03/07 06:31:53;;;;;;;12.60;5.97;;;2.60;99.90;;;;;;4188828;28;20451;-74
2023/03/07 06:33:56;;;;;;;11.40;5.73;;;2.70;99.90;;;;;;4185953;28;20516;-70
2023/03/07 06:35:57;;;;;;;15.37;7.03;;;2.70;99.90;;;;;;4191935;28;20525;-77
2023/03/07 06:37:59;;;;;;;13.90;6.50;;;2.70;99.90;;;;;;4195278;28;20486;-77
2023/03/07 06:40:05;;;;;;;12.13;6.20;;;2.70;99.90;;;;;;4195937;28;20514;-76
2023/03/07 06:42:07;;;;;;;12.13;6.17;;;2.70;99.90;;;;;;4199744;28;20486;-74
2023/03/07 06:44:09;;;;;;;11.73;5.63;;;2.70;99.90;;;;;;4174641;28;20511;-73
2023/03/07 06:46:11;;;;;;;11.10;5.77;;;2.90;99.90;;;;;;4171930;28;20469;-74
2023/03/07 06:48:16;;;;;;;11.93;5.50;;;2.70;99.90;;;;;;4184921;28;20491;-76
2023/03/07 06:50:18;;;;;;;10.97;5.73;;;2.80;99.90;;;;;;4176466;28;20498;-76
2023/03/07 06:52:20;;;;;;;12.23;6.13;;;2.80;99.90;;;;;;4189518;28;20463;-77
2023/03/07 06:54:22;;;;;;;12.30;5.73;;;2.80;99.90;;;;;;4193317;28;20487;-77
2023/03/07 06:56:25;;;;;;;12.53;5.83;;;2.90;99.90;;;;;;4191008;28;20542;-78
2023/03/07 06:58:27;;;;;;;13.37;5.50;;;2.90;99.90;;;;;;4196218;28;21231;-75
2023/03/07 07:00:32;;;;;;;10.30;5.43;;;2.90;99.90;;;;;;4193599;28;20475;-74
2023/03/07 07:02:34;;;;;;;11.07;5.30;;;2.90;99.90;;;;;;4193673;28;20479;-74
2023/03/07 07:04:37;;;;;;;10.07;5.33;;;2.90;99.90;;;;;;4208381;28;20561;-74
2023/03/07 07:06:39;;;;;;;12.73;5.30;;;2.90;99.90;;;;;;4194390;28;20538;-73
2023/03/07 07:08:41;;;;;;;12.90;5.87;;;2.90;99.90;;;;;;4189296;28;20936;-74
2023/03/07 07:10:43;;;;;;;11.97;5.57;;;3.00;99.90;;;;;;4195610;28;20454;-73
2023/03/07 07:12:45;;;;;;;11.23;5.33;;;3.00;99.90;;;;;;4195173;28;21010;-76
2023/03/07 07:14:47;;;;;;;9.63;4.90;;;3.00;99.90;;;;;;4195524;28;21015;-77
2023/03/07 07:16:49;;;;;;;9.90;5.10;;;3.00;99.90;;;;;;4196096;28;20452;-76
2023/03/07 07:18:51;;;;;;;10.90;5.40;;;3.10;99.90;;;;;;4209707;28;20554;-75
2023/03/07 07:20:55;;;;;;;11.37;5.53;;;3.10;99.90;;;;;;4194839;28;20451;-75
2023/03/07 07:22:59;;;;;;;11.30;5.40;;;3.10;99.90;;;;;;4195319;28;20452;-74
2023/03/07 07:25:01;;;;;;;11.43;5.33;;;3.10;99.90;;;;;;4216061;28;20463;-77
2023/03/07 07:27:04;;;;;;;9.47;4.63;;;3.10;99.90;;;;;;4198030;28;20463;-77
2023/03/07 07:29:06;;;;;;;11.33;5.53;;;3.20;99.90;;;;;;4199246;28;20498;-76
2023/03/07 07:31:08;;;;;;;9.53;5.07;;;3.20;99.90;;;;;;4199370;28;20475;-77
2023/03/07 07:33:10;;;;;;;9.80;5.10;;;3.20;99.90;;;;;;4196526;28;20452;-76
2023/03/07 07:35:12;;;;;;;10.20;4.87;;;3.30;99.90;;;;;;4193945;28;20464;-77
2023/03/07 07:37:15;;;;;;;11.00;5.10;;;3.30;99.90;;;;;;4193920;28;21004;-78
2023/03/07 07:39:17;;;;;;;10.70;5.20;;;3.30;99.90;;;;;;4194155;28;20440;-77
2023/03/07 07:41:19;;;;;;;10.07;5.13;;;3.30;99.90;;;;;;4194040;28;20455;-77
2023/03/07 07:43:21;;;;;;;10.33;5.03;;;3.40;99.90;;;;;;4191986;28;20444;-73
2023/03/07 07:45:24;;;;;;;9.93;4.70;;;3.40;99.90;;;;;;4191787;28;20452;-76
2023/03/07 07:47:26;;;;;;;8.67;4.70;;;3.40;99.90;;;;;;4192729;28;20472;-75
2023/03/07 07:49:28;;;;;;;11.47;4.97;;;3.50;99.90;;;;;;4193380;28;20578;-76
2023/03/07 07:51:30;;;;;;;8.40;3.97;;;3.50;99.90;;;;;;4191293;28;20468;-77
2023/03/07 07:53:34;;;;;;;8.80;4.50;;;3.60;99.90;;;;;;4193217;28;20448;-77
2023/03/07 07:55:36;;;;;;;9.07;4.53;;;3.60;99.90;;;;;;4190027;28;20507;-75
2023/03/07 07:57:38;;;;;;;7.50;4.07;;;3.60;99.90;;;;;;4208181;28;20556;-77
2023/03/07 07:59:39;;;;;;;9.23;4.33;;;3.70;99.90;;;;;;4208786;28;20454;-76
2023/03/07 08:01:42;;;;;;;9.80;4.93;;;3.70;99.90;;;;;;4191142;28;20476;-75
2023/03/07 08:03:44;;;;;;;6.63;3.73;;;3.80;99.90;;;;;;4191697;28;20485;-76
2023/03/07 08:05:47;;;;;;;8.97;4.10;;;3.90;99.90;;;;;;4192846;28;20460;-77
2023/03/07 08:07:50;;;;;;;10.53;4.50;;;3.90;99.90;;;;;;4191253;28;20476;-77
2023/03/07 08:09:53;;;;;;;7.57;4.17;;;3.80;99.90;;;;;;4193317;28;20483;-76
2023/03/07 08:11:55;;;;;;;8.37;4.20;;;3.90;99.90;;;;;;4192599;28;20449;-77
2023/03/07 08:13:57;;;;;;;7.67;4.37;;;3.90;99.90;;;;;;4192832;28;20581;-77
2023/03/07 08:15:59;;;;;;;7.37;3.97;;;3.90;99.90;;;;;;4193506;28;20523;-76
2023/03/07 08:18:01;;;;;;;7.33;3.93;;;4.00;99.90;;;;;;4194654;28;20577;-76
2023/03/07 08:20:08;;;;;;;7.57;3.77;;;4.00;99.90;;;;;;4210780;28;20443;-74
2023/03/07 08:22:09;;;;;;;7.03;3.97;;;4.00;99.90;;;;;;4193340;28;20451;-75
2023/03/07 08:24:11;;;;;;;6.03;3.30;;;4.10;99.90;;;;;;4199730;28;20969;-73
2023/03/07 08:26:16;;;;;;;6.70;3.80;;;4.10;99.90;;;;;;4194730;28;20452;-74
2023/03/07 08:28:18;;;;;;;8.53;3.77;;;4.10;99.90;;;;;;4193262;28;20456;-73
2023/03/07 08:30:20;;;;;;;6.90;3.70;;;4.20;99.90;;;;;;4194608;28;20523;-74
2023/03/07 08:32:22;;;;;;;6.37;3.67;;;4.20;99.90;;;;;;4194782;28;20448;-75
2023/03/07 08:34:24;;;;;;;5.97;3.53;;;4.30;99.90;;;;;;4192752;28;20461;-76
2023/03/07 08:36:26;;;;;;;7.70;4.13;;;4.30;99.90;;;;;;4193042;28;20494;-73
2023/03/07 08:38:28;;;;;;;5.43;3.10;;;4.30;99.90;;;;;;4192527;28;20472;-73
2023/03/07 08:40:31;;;;;;;6.50;3.80;;;4.30;99.90;;;;;;4192609;28;20452;-74
2023/03/07 08:42:34;;;;;;;7.97;4.10;;;4.40;99.90;;;;;;4193355;28;20540;-76
2023/03/07 08:44:36;;;;;;;6.50;3.60;;;4.40;99.90;;;;;;4192006;28;20456;-74
2023/03/07 08:46:38;;;;;;;6.70;3.63;;;4.40;99.90;;;;;;4195139;28;20543;-75
2023/03/07 08:48:40;;;;;;;7.83;3.97;;;4.40;99.90;;;;;;4195808;28;20526;-78
2023/03/07 08:50:42;;;;;;;6.67;3.80;;;4.50;99.90;;;;;;4208053;28;20452;-75
2023/03/07 08:52:44;;;;;;;6.43;3.37;;;4.60;99.90;;;;;;4194316;28;20465;-74
2023/03/07 08:54:46;;;;;;;6.83;3.80;;;4.50;99.90;;;;;;4193418;28;20484;-75
2023/03/07 08:56:48;;;;;;;7.20;4.13;;;4.60;99.90;;;;;;4194506;28;20539;-77
2023/03/07 08:58:53;;;;;;;6.37;3.80;;;4.60;99.90;;;;;;4195640;28;20453;-77
2023/03/07 09:00:57;;;;;;;6.13;3.57;;;4.70;99.90;;;;;;4194683;28;20453;-75
2023/03/07 09:03:01;;;;;;;7.23;3.90;;;4.70;99.90;;;;;;4192103;28;20457;-74
2023/03/07 09:05:03;;;;;;;7.73;4.10;;;4.80;99.90;;;;;;4194651;28;20451;-75
2023/03/07 09:07:05;;;;;;;6.17;3.83;;;4.80;99.90;;;;;;4191422;28;20485;-76
2023/03/07 09:09:07;;;;;;;7.60;4.20;;;4.80;99.90;;;;;;4190814;28;20477;-76
2023/03/07 09:11:10;;;;;;;8.03;4.40;;;4.80;99.90;;;;;;4206959;28;20468;-76
2023/03/07 09:13:12;;;;;;;6.07;3.83;;;4.90;99.90;;;;;;4192334;28;20462;-76
2023/03/07 09:15:16;;;;;;;6.97;3.90;;;4.90;99.90;;;;;;4190381;28;20457;-76
2023/03/07 09:17:18;;;;;;;8.77;4.00;;;4.90;99.90;;;;;;4198501;28;20557;-78
2023/03/07 09:19:20;;;;;;;7.67;4.07;;;5.00;99.90;;;;;;4209033;28;20500;-76
2023/03/07 09:21:22;;;;;;;9.87;4.10;;;5.00;99.90;;;;;;4191404;28;20721;-75
2023/03/07 09:23:24;;;;;;;7.77;4.40;;;5.10;99.90;;;;;;4192066;28;20450;-76
2023/03/07 09:25:26;;;;;;;11.80;4.63;;;5.40;99.90;;;;;;4191103;28;20495;-76
2023/03/07 09:27:28;;;;;;;8.00;4.50;;;5.20;99.90;;;;;;4194207;28;20560;-75
2023/03/07 09:29:30;;;;;;;8.80;4.87;;;5.10;99.90;;;;;;4208454;28;20503;-77
2023/03/07 09:31:34;;;;;;;8.80;4.47;;;5.20;99.90;;;;;;4197503;28;21071;-76
2023/03/07 09:33:36;;;;;;;9.40;4.43;;;5.30;99.90;;;;;;4195099;28;20453;-76
2023/03/07 09:35:38;;;;;;;7.73;4.43;;;5.40;99.90;;;;;;4192299;28;20459;-76
2023/03/07 09:37:40;;;;;;;9.10;4.57;;;5.40;99.90;;;;;;4194325;28;20886;-76
2023/03/07 09:39:42;;;;;;;8.33;4.73;;;5.50;99.90;;;;;;4193335;28;20459;-75
2023/03/07 09:42:07;;;;;;;8.00;4.60;;;5.50;99.90;;;;;;4192809;28;20504;-76
2023/03/07 09:44:20;;;;;;;10.37;5.10;;;5.60;99.90;;;;;;4188682;28;20459;-76
2023/03/07 09:46:38;;;;;;;10.30;4.50;;;5.60;99.90;;;;;;4193359;28;20549;-75
2023/03/07 09:49:06;;;;;;;8.40;4.53;;;5.50;99.90;;;;;;4192679;28;20482;-76
2023/03/07 09:51:16;;;;;;;10.53;5.70;;;5.50;99.90;;;;;;4193885;28;21383;-76
2023/03/07 09:53:35;;;;;;;8.30;4.53;;;5.50;99.90;;;;;;4194887;28;20469;-76
2023/03/07 09:55:37;;;;;;;9.83;5.40;;;5.50;99.90;;;;;;4196546;28;20610;-74
2023/03/07 09:57:46;;;;;;;10.63;5.23;;;5.50;99.90;;;;;;4196340;28;20484;-74
2023/03/07 09:59:51;;;;;;;8.73;4.83;;;5.50;99.90;;;;;;4193148;28;20508;-76
2023/03/07 10:02:05;;;;;;;9.00;5.03;;;5.50;99.90;;;;;;4196045;28;20497;-74
2023/03/07 10:04:15;;;;;;;8.90;4.97;;;5.50;99.90;;;;;;4197101;28;20459;-74
2023/03/07 10:06:24;;;;;;;13.13;5.60;;;5.50;99.90;;;;;;4196438;28;20449;-74
2023/03/07 10:08:30;;;;;;;11.40;5.13;;;5.50;99.90;;;;;;4196481;28;20470;-75
2023/03/07 10:10:38;;;;;;;10.53;5.10;;;5.40;99.90;;;;;;4211962;28;20503;-74
2023/03/07 10:13:01;;;;;;;10.07;5.40;;;5.40;99.90;;;;;;4197827;28;20491;-76
2023/03/07 10:15:19;;;;;;;10.17;5.53;;;5.30;99.90;;;;;;4199398;28;20482;-77
2023/03/07 10:17:34;;;;;;;9.47;5.20;;;5.30;99.90;;;;;;4198915;28;20563;-76
2023/03/07 10:19:44;;;;;;;9.33;5.70;;;5.30;99.90;;;;;;4195672;28;20457;-75
2023/03/07 10:21:57;;;;;;;9.70;5.53;;;5.30;99.90;;;;;;4196836;28;21248;-75
2023/03/07 10:24:32;;;;;;;10.50;5.10;;;5.30;99.90;;;;;;4195475;28;20453;-74
2023/03/07 10:26:37;;;;;;;10.87;5.20;;;5.40;99.90;;;;;;4197253;28;20507;-76
2023/03/07 10:28:41;;;;;;;10.50;5.47;;;5.40;99.90;;;;;;4195963;28;20482;-74
2023/03/07 10:30:43;;;;;;;12.60;6.43;;;5.50;99.90;;;;;;4195817;28;20482;-74
2023/03/07 10:32:46;;;;;;;11.00;6.13;;;5.50;99.90;;;;;;4211303;28;20448;-75
2023/03/07 10:34:55;;;;;;;9.63;5.47;;;5.50;99.90;;;;;;4194975;28;20557;-76
2023/03/07 10:37:02;;;;;;;8.57;4.83;;;5.50;99.90;;;;;;4195018;28;21100;-77
2023/03/07 10:39:14;;;;;;;11.23;5.23;;;5.50;99.90;;;;;;4195728;28;20892;-77
2023/03/07 10:41:21;;;;;;;10.30;5.60;;;5.50;99.90;;;;;;4196293;28;20523;-77